Stockham, Nebraska
Current Conditions -  °F | °C
As of 3:55 AM on Saturday 29 Nov 2014 (Local Time) from KAUH Reporting Station
Clear Clear  
Wind Chill: 28°   Ceiling: Unl
Heat Index: 36°   Visibility: 10mi
Dew Point: 23°   Wind: 12mph
Humidity: 58%   Direction: 230°SW
Pressure: 29.57"   Gusts: NA
Location:  40.8232°N, 98.0482°W
Report Text: KAUH 290955Z AUTO 23010KT 10SM CLR 02/M05 A2957 RMK AO2 T00241052
Loading
Personal Weather Stations






























Interactive Weather Map New forecast layout! Learn more

10-Day Weather Forecast

Advertisements
Track Severe Weather on mobile